Time;durP1;ratioP1;P1;durP2;ratioP2;P2;SDS_P1;SDS_P2;PMS_P1;PMS_P2;Temp;Humidity;BMP_temperature;BMP_pressure;BME280_temperature;BME280_humidity;BME280_pressure;Samples;Min_cycle;Max_cycle;Signal;HPM_P1;HPM_P2
2023/12/28 00:00:17;;;;;;;3.17;2.60;;;10.60;99.90;;;;;;5116386;28;20182;-57
2023/12/28 00:02:43;;;;;;;2.58;2.30;;;10.50;99.90;;;;;;5116473;28;20209;-57
2023/12/28 00:05:09;;;;;;;3.22;2.30;;;10.50;99.90;;;;;;5116616;28;20172;-58
2023/12/28 00:07:35;;;;;;;3.90;2.58;;;10.50;99.90;;;;;;5116494;28;20607;-58
2023/12/28 00:10:02;;;;;;;3.47;2.80;;;10.50;99.90;;;;;;5116568;28;20545;-58
2023/12/28 00:12:28;;;;;;;3.47;2.80;;;10.50;99.90;;;;;;5116351;28;20185;-57
2023/12/28 00:14:53;;;;;;;3.95;2.55;;;10.50;99.90;;;;;;5116622;28;20225;-58
2023/12/28 00:17:19;;;;;;;2.83;2.63;;;10.50;99.90;;;;;;5116280;28;20181;-57
2023/12/28 00:19:45;;;;;;;3.28;2.63;;;10.50;99.90;;;;;;5116213;28;20169;-58
2023/12/28 00:22:11;;;;;;;3.60;2.60;;;10.50;99.90;;;;;;5116159;28;20550;-58
2023/12/28 00:24:37;;;;;;;4.45;2.70;;;10.50;99.90;;;;;;5116021;28;20200;-58
2023/12/28 00:27:02;;;;;;;2.75;2.30;;;10.50;99.90;;;;;;5116132;28;20181;-58
2023/12/28 00:29:29;;;;;;;3.70;2.28;;;10.50;99.90;;;;;;5115746;28;20176;-57
2023/12/28 00:31:54;;;;;;;2.63;2.38;;;10.50;99.90;;;;;;5115989;28;20176;-58
2023/12/28 00:34:20;;;;;;;3.92;2.70;;;10.40;99.90;;;;;;5116037;28;20256;-58
2023/12/28 00:36:46;;;;;;;4.57;2.45;;;10.40;99.90;;;;;;5116234;28;20648;-58
2023/12/28 00:39:12;;;;;;;3.00;2.40;;;10.50;99.90;;;;;;5115913;28;20212;-58
2023/12/28 00:41:37;;;;;;;4.82;2.45;;;10.50;99.90;;;;;;5115862;28;20173;-56
2023/12/28 00:44:05;;;;;;;5.25;2.60;;;10.50;99.90;;;;;;5115452;28;20283;-58
2023/12/28 00:46:30;;;;;;;3.15;2.30;;;10.50;99.90;;;;;;5115705;28;20191;-57
2023/12/28 00:48:56;;;;;;;5.45;2.60;;;10.60;99.90;;;;;;5115493;28;20745;-57
2023/12/28 00:51:22;;;;;;;5.65;2.60;;;10.70;99.90;;;;;;5115351;28;20260;-57
2023/12/28 00:53:47;;;;;;;3.60;2.40;;;10.70;99.90;;;;;;5115653;28;20618;-57
2023/12/28 00:56:13;;;;;;;3.95;2.50;;;10.70;99.90;;;;;;5115247;28;20174;-58
2023/12/28 00:58:40;;;;;;;3.20;2.65;;;10.60;99.90;;;;;;5115526;28;20168;-58
2023/12/28 01:01:06;;;;;;;4.40;3.08;;;10.80;99.90;;;;;;5115402;28;20203;-57
2023/12/28 01:03:31;;;;;;;4.35;2.70;;;10.80;99.90;;;;;;5115358;28;20240;-58
2023/12/28 01:05:57;;;;;;;5.45;2.88;;;10.70;99.90;;;;;;5114191;28;20223;-57
2023/12/28 01:08:22;;;;;;;6.80;2.97;;;10.60;99.90;;;;;;5114969;28;20170;-57
2023/12/28 01:10:48;;;;;;;2.90;2.50;;;10.80;99.90;;;;;;5115239;28;20177;-58
2023/12/28 01:13:14;;;;;;;4.57;2.67;;;10.70;99.90;;;;;;5115181;28;20178;-58
2023/12/28 01:15:40;;;;;;;4.55;2.65;;;10.70;99.90;;;;;;5115184;28;20169;-58
2023/12/28 01:18:05;;;;;;;3.72;2.55;;;10.60;99.90;;;;;;5113883;28;20177;-58
2023/12/28 01:20:31;;;;;;;4.57;2.33;;;10.50;99.90;;;;;;5115102;28;20178;-57
2023/12/28 01:22:57;;;;;;;3.20;2.65;;;10.60;99.90;;;;;;5114571;28;20327;-58
2023/12/28 01:25:23;;;;;;;4.00;2.85;;;10.60;99.90;;;;;;5114966;28;20211;-57
2023/12/28 01:27:48;;;;;;;3.50;2.60;;;10.60;99.90;;;;;;5114698;28;20173;-57
2023/12/28 01:30:14;;;;;;;3.60;3.00;;;10.50;99.90;;;;;;5114633;28;20169;-58
2023/12/28 01:32:40;;;;;;;4.57;2.90;;;10.50;99.90;;;;;;5114849;28;20629;-57
2023/12/28 01:35:06;;;;;;;3.65;2.55;;;10.60;99.90;;;;;;5114842;28;20210;-58
2023/12/28 01:37:33;;;;;;;4.07;2.50;;;10.50;99.90;;;;;;5114728;28;20219;-57
2023/12/28 01:40:00;;;;;;;5.45;2.47;;;10.60;99.90;;;;;;5114729;28;20321;-57
2023/12/28 01:42:26;;;;;;;5.68;2.92;;;10.60;99.90;;;;;;5114690;28;20177;-57
2023/12/28 01:44:51;;;;;;;5.32;2.40;;;10.50;99.90;;;;;;5114726;28;20177;-58
2023/12/28 01:47:18;;;;;;;4.88;2.85;;;10.50;99.90;;;;;;5114585;28;20180;-58
2023/12/28 01:49:44;;;;;;;4.45;2.88;;;10.60;99.90;;;;;;5114809;28;20260;-58
2023/12/28 01:52:10;;;;;;;6.20;2.70;;;10.70;99.90;;;;;;5114466;28;20210;-57
2023/12/28 01:54:37;;;;;;;3.92;2.80;;;10.60;99.90;;;;;;5114450;28;20246;-58
2023/12/28 01:57:04;;;;;;;3.47;2.50;;;10.50;99.90;;;;;;5114139;28;20192;-57
2023/12/28 01:59:31;;;;;;;3.30;2.55;;;10.50;99.90;;;;;;5114429;28;20169;-58
2023/12/28 02:01:58;;;;;;;4.50;2.70;;;10.50;99.90;;;;;;5114375;28;20189;-58
2023/12/28 02:04:28;;;;;;;5.43;2.95;;;10.50;99.90;;;;;;5114150;28;20212;-58
2023/12/28 02:06:57;;;;;;;5.78;2.67;;;10.50;99.90;;;;;;5114246;28;20567;-58
2023/12/28 02:09:23;;;;;;;4.10;2.75;;;10.50;99.90;;;;;;5114253;28;20169;-57
2023/12/28 02:11:49;;;;;;;6.28;2.55;;;10.40;99.90;;;;;;5114189;28;20180;-57
2023/12/28 02:14:16;;;;;;;2.83;2.30;;;10.40;99.90;;;;;;5114231;28;20203;-58
2023/12/28 02:17:01;;;;;;;3.72;2.50;;;10.50;99.90;;;;;;5112894;28;20283;-58
2023/12/28 02:19:35;;;;;;;4.63;2.80;;;10.50;99.90;;;;;;5113721;28;20161;-58
2023/12/28 02:22:02;;;;;;;3.75;2.40;;;10.50;99.90;;;;;;5113966;28;20222;-58
2023/12/28 02:24:28;;;;;;;5.93;2.78;;;10.70;99.90;;;;;;5114003;28;20204;-57
2023/12/28 02:26:53;;;;;;;4.10;2.60;;;10.60;99.90;;;;;;5114042;28;20173;-58
2023/12/28 02:29:19;;;;;;;6.22;3.00;;;10.50;99.90;;;;;;5114042;28;20201;-57
2023/12/28 02:31:58;;;;;;;5.82;2.72;;;10.50;99.90;;;;;;5113959;28;20630;-58
2023/12/28 02:34:33;;;;;;;5.85;3.00;;;10.50;99.90;;;;;;5114027;28;20636;-58
2023/12/28 02:37:01;;;;;;;6.22;2.75;;;10.40;99.90;;;;;;5114030;28;20598;-58
2023/12/28 02:39:29;;;;;;;2.70;2.20;;;10.30;99.90;;;;;;5113960;28;20174;-57
2023/12/28 02:41:55;;;;;;;5.25;2.60;;;10.30;99.90;;;;;;5113586;28;20645;-58
2023/12/28 02:44:21;;;;;;;3.75;2.65;;;10.40;99.90;;;;;;5113800;28;20206;-58
2023/12/28 02:46:47;;;;;;;6.15;2.42;;;10.50;99.90;;;;;;5113844;28;20614;-58
2023/12/28 02:49:13;;;;;;;4.60;2.80;;;10.50;99.90;;;;;;5113756;28;20177;-58
2023/12/28 02:51:38;;;;;;;4.22;2.55;;;10.60;99.90;;;;;;5113742;28;20244;-58
2023/12/28 02:54:04;;;;;;;4.40;2.42;;;10.50;99.90;;;;;;5113716;28;20178;-57
2023/12/28 02:56:32;;;;;;;5.13;2.28;;;10.50;99.90;;;;;;5113454;28;20689;-57
2023/12/28 02:58:57;;;;;;;3.53;2.38;;;10.50;99.90;;;;;;5113686;28;20189;-58
2023/12/28 03:01:23;;;;;;;3.25;2.13;;;10.60;99.90;;;;;;5113647;28;20262;-58
2023/12/28 03:03:48;;;;;;;4.88;2.65;;;10.60;99.90;;;;;;5113309;28;20201;-58
2023/12/28 03:06:14;;;;;;;4.97;2.15;;;10.50;99.90;;;;;;5113971;28;20177;-58
2023/12/28 03:08:40;;;;;;;4.40;2.58;;;10.50;99.90;;;;;;5113612;28;20177;-58
2023/12/28 03:11:05;;;;;;;5.68;2.25;;;10.40;99.90;;;;;;5113627;28;20201;-58
2023/12/28 03:13:32;;;;;;;5.93;2.50;;;10.40;99.90;;;;;;5113297;28;20181;-58
2023/12/28 03:15:57;;;;;;;6.00;2.50;;;10.40;99.90;;;;;;5113196;28;20519;-58
2023/12/28 03:18:23;;;;;;;3.30;2.33;;;10.40;99.90;;;;;;5113593;28;20180;-58
2023/12/28 03:20:49;;;;;;;4.85;2.58;;;10.40;99.90;;;;;;5113443;28;20610;-58
2023/12/28 03:23:14;;;;;;;5.78;2.50;;;10.40;99.90;;;;;;5112960;28;20221;-57
2023/12/28 03:25:40;;;;;;;5.20;2.80;;;10.40;99.90;;;;;;5113489;28;20174;-58
2023/12/28 03:28:06;;;;;;;5.68;2.55;;;10.50;99.90;;;;;;5113436;28;20177;-58
2023/12/28 03:30:32;;;;;;;6.43;2.72;;;10.50;99.90;;;;;;5113408;28;20185;-58
2023/12/28 03:32:57;;;;;;;7.25;2.70;;;10.50;99.90;;;;;;5117267;28;20177;-58
2023/12/28 03:35:23;;;;;;;6.55;2.72;;;10.50;99.90;;;;;;5117253;28;20169;-58
2023/12/28 03:37:49;;;;;;;4.85;2.83;;;10.50;99.90;;;;;;5116814;28;20176;-56
2023/12/28 03:40:14;;;;;;;5.00;2.55;;;10.50;99.90;;;;;;5117102;28;20180;-58
2023/12/28 03:42:41;;;;;;;7.32;2.70;;;10.60;99.90;;;;;;5116989;28;20176;-58
2023/12/28 03:45:07;;;;;;;5.57;2.78;;;10.60;99.90;;;;;;5117056;28;20174;-58
2023/12/28 03:47:33;;;;;;;6.22;2.70;;;10.60;99.90;;;;;;5116913;28;20220;-58
2023/12/28 03:49:58;;;;;;;3.95;2.20;;;10.70;99.90;;;;;;5116572;28;20215;-58
2023/12/28 03:52:29;;;;;;;4.50;2.42;;;10.70;99.90;;;;;;5116933;28;20173;-57
2023/12/28 03:54:55;;;;;;;6.45;2.78;;;10.60;99.90;;;;;;5116520;28;20526;-57
2023/12/28 03:57:21;;;;;;;4.95;2.30;;;10.60;99.90;;;;;;5116761;28;20198;-58
2023/12/28 03:59:47;;;;;;;6.28;2.50;;;10.50;99.90;;;;;;5116672;28;20181;-58
2023/12/28 04:02:13;;;;;;;5.00;2.20;;;10.40;99.90;;;;;;5116578;28;20174;-56
2023/12/28 04:04:39;;;;;;;6.30;2.63;;;10.30;99.90;;;;;;5116487;28;20297;-57
2023/12/28 04:07:07;;;;;;;5.03;2.38;;;10.30;99.90;;;;;;5116467;28;20249;-57
2023/12/28 04:09:33;;;;;;;3.65;2.15;;;10.40;99.90;;;;;;5116417;28;20260;-58
2023/12/28 04:11:59;;;;;;;6.07;2.40;;;10.40;99.90;;;;;;5116374;28;20188;-58
2023/12/28 04:14:24;;;;;;;5.82;2.50;;;10.40;99.90;;;;;;5116455;28;20177;-58
2023/12/28 04:16:50;;;;;;;6.07;2.40;;;10.50;99.90;;;;;;5116650;28;20170;-57
2023/12/28 04:19:15;;;;;;;10.35;2.80;;;10.50;99.90;;;;;;5116047;28;20165;-58
2023/12/28 04:21:44;;;;;;;6.18;2.47;;;10.60;99.90;;;;;;5116315;28;20680;-57
2023/12/28 04:24:10;;;;;;;4.95;2.33;;;10.70;99.90;;;;;;5116204;28;20197;-58
2023/12/28 04:26:36;;;;;;;6.82;2.67;;;10.80;99.90;;;;;;5116155;28;20500;-58
2023/12/28 04:29:02;;;;;;;3.85;2.30;;;10.70;99.90;;;;;;5116127;28;20539;-57
2023/12/28 04:31:27;;;;;;;7.72;2.50;;;10.70;99.90;;;;;;5116110;28;20169;-58
2023/12/28 04:33:53;;;;;;;6.18;2.83;;;10.80;99.90;;;;;;5116024;28;20184;-58
2023/12/28 04:36:19;;;;;;;4.93;2.28;;;10.70;99.90;;;;;;5115797;28;20185;-57
2023/12/28 04:38:44;;;;;;;8.40;2.85;;;10.70;99.90;;;;;;5115911;28;20173;-58
2023/12/28 04:41:11;;;;;;;6.72;2.30;;;10.70;99.90;;;;;;5115880;28;20174;-58
2023/12/28 04:43:38;;;;;;;5.85;2.65;;;10.70;99.90;;;;;;5115387;28;20219;-58
2023/12/28 04:46:06;;;;;;;5.82;2.45;;;10.70;99.90;;;;;;5115724;28;20266;-57
2023/12/28 04:48:32;;;;;;;7.13;2.65;;;10.60;99.90;;;;;;5115690;28;20230;-58
2023/12/28 04:50:58;;;;;;;5.53;2.50;;;10.50;99.90;;;;;;5115673;28;20178;-57
2023/12/28 04:53:23;;;;;;;7.15;2.88;;;10.40;99.90;;;;;;5115659;28;20173;-57
2023/12/28 04:55:49;;;;;;;6.28;2.35;;;10.30;99.90;;;;;;5115856;28;20185;-58
2023/12/28 04:58:15;;;;;;;6.07;2.60;;;10.30;99.90;;;;;;5115621;28;20212;-58
2023/12/28 05:00:41;;;;;;;6.22;2.45;;;10.30;99.90;;;;;;5115497;28;20181;-57
2023/12/28 05:03:06;;;;;;;6.85;2.53;;;10.40;99.90;;;;;;5115131;28;20205;-58
2023/12/28 05:05:32;;;;;;;5.45;2.58;;;10.50;99.90;;;;;;5115079;28;20174;-58
2023/12/28 05:07:58;;;;;;;6.75;2.78;;;10.50;99.90;;;;;;5115342;28;20233;-57
2023/12/28 05:10:24;;;;;;;11.05;2.33;;;10.50;99.90;;;;;;5115322;28;20170;-58
2023/12/28 05:12:49;;;;;;;5.68;2.30;;;10.50;99.90;;;;;;5115011;28;20181;-58
2023/12/28 05:15:16;;;;;;;8.15;2.55;;;10.50;99.90;;;;;;5115261;28;20176;-57
2023/12/28 05:17:43;;;;;;;9.18;2.90;;;10.60;99.90;;;;;;5115079;28;20185;-58
2023/12/28 05:20:09;;;;;;;6.07;2.42;;;10.50;99.90;;;;;;5115081;28;20189;-57
2023/12/28 05:22:35;;;;;;;7.13;2.22;;;10.50;99.90;;;;;;5114796;28;20221;-58
2023/12/28 05:25:00;;;;;;;4.18;2.15;;;10.40;99.90;;;;;;5115029;28;20181;-58
2023/12/28 05:27:26;;;;;;;10.75;2.40;;;10.30;99.90;;;;;;5115301;28;20219;-58
2023/12/28 05:29:52;;;;;;;7.18;2.50;;;10.40;99.90;;;;;;5114934;28;20196;-58
2023/12/28 05:32:17;;;;;;;8.13;2.58;;;10.50;99.90;;;;;;5113611;28;20200;-58
2023/12/28 05:34:43;;;;;;;5.88;2.20;;;10.30;99.90;;;;;;5114817;28;20173;-58
2023/12/28 05:37:09;;;;;;;12.43;2.67;;;10.30;99.90;;;;;;5114824;28;20187;-58
2023/12/28 05:39:34;;;;;;;10.20;2.70;;;10.30;99.90;;;;;;5114755;28;20179;-58
2023/12/28 05:42:00;;;;;;;12.25;2.60;;;10.30;99.90;;;;;;5114723;28;20256;-58
2023/12/28 05:44:25;;;;;;;6.47;2.42;;;10.20;99.90;;;;;;5114660;28;20288;-57
2023/12/28 05:46:52;;;;;;;6.65;2.78;;;10.20;99.90;;;;;;5114297;28;20181;-57
2023/12/28 05:49:17;;;;;;;8.30;2.67;;;10.20;99.90;;;;;;5114694;28;20197;-57
2023/12/28 05:51:43;;;;;;;8.60;3.28;;;10.30;99.90;;;;;;5114533;28;20215;-57
2023/12/28 05:54:09;;;;;;;10.13;3.05;;;10.30;99.90;;;;;;5113843;28;20200;-58
2023/12/28 05:56:35;;;;;;;7.40;2.40;;;10.30;99.90;;;;;;5114469;28;20181;-58
2023/12/28 05:59:01;;;;;;;6.82;2.50;;;10.30;99.90;;;;;;5114716;28;20177;-58
2023/12/28 06:01:27;;;;;;;8.25;3.20;;;10.50;99.90;;;;;;5114006;28;20173;-58
2023/12/28 06:03:53;;;;;;;7.50;2.50;;;10.40;99.90;;;;;;5114303;28;20189;-58
2023/12/28 06:06:19;;;;;;;11.00;2.60;;;10.40;99.90;;;;;;5114284;28;20184;-58
2023/12/28 06:08:45;;;;;;;7.93;2.58;;;10.30;99.90;;;;;;5114270;28;20170;-58
2023/12/28 06:11:10;;;;;;;10.93;2.70;;;10.30;99.90;;;;;;5114237;28;20276;-58
2023/12/28 06:13:36;;;;;;;6.68;2.58;;;10.50;99.90;;;;;;5114223;28;20173;-58
2023/12/28 06:16:02;;;;;;;9.13;2.50;;;10.50;99.90;;;;;;5114150;28;20262;-58
2023/12/28 06:18:27;;;;;;;9.50;2.92;;;10.40;99.90;;;;;;5114257;28;20162;-58
2023/12/28 06:20:53;;;;;;;9.90;2.55;;;10.30;99.90;;;;;;5114406;28;20170;-58
2023/12/28 06:23:19;;;;;;;6.18;2.80;;;10.30;99.90;;;;;;5114145;28;20221;-58
2023/12/28 06:25:46;;;;;;;9.13;2.65;;;10.30;99.90;;;;;;5113959;28;20270;-58
2023/12/28 06:28:11;;;;;;;10.82;2.65;;;10.20;99.90;;;;;;5114073;28;20622;-58
2023/12/28 06:30:37;;;;;;;10.90;2.80;;;10.10;99.90;;;;;;5113982;28;20256;-58
2023/12/28 06:33:03;;;;;;;8.70;2.55;;;10.10;99.90;;;;;;5113898;28;20181;-57
2023/12/28 06:35:29;;;;;;;9.00;2.45;;;10.10;99.90;;;;;;5113925;28;20181;-58
2023/12/28 06:37:54;;;;;;;8.30;2.95;;;10.10;99.90;;;;;;5113964;28;20572;-58
2023/12/28 06:40:20;;;;;;;10.00;2.70;;;10.00;99.90;;;;;;5113687;28;20309;-58
2023/12/28 06:42:45;;;;;;;12.18;2.83;;;10.10;99.90;;;;;;5113667;28;20181;-58
2023/12/28 06:45:11;;;;;;;10.73;3.28;;;10.00;99.90;;;;;;5114092;28;20191;-58
2023/12/28 06:47:37;;;;;;;12.23;2.80;;;10.00;99.90;;;;;;5113568;28;20614;-58
2023/12/28 06:50:03;;;;;;;12.80;2.88;;;9.90;99.90;;;;;;5113659;28;20184;-57
2023/12/28 06:52:31;;;;;;;8.88;2.95;;;10.00;99.90;;;;;;5113621;28;20173;-57
2023/12/28 06:54:57;;;;;;;7.93;2.50;;;10.00;99.90;;;;;;5112852;28;20262;-57
2023/12/28 06:57:22;;;;;;;9.30;2.63;;;10.00;99.90;;;;;;5113553;28;20262;-57
2023/12/28 06:59:48;;;;;;;12.77;3.50;;;10.00;99.90;;;;;;5113606;28;20252;-57
2023/12/28 07:02:14;;;;;;;7.70;2.38;;;10.00;99.90;;;;;;5112945;28;20258;-57
2023/12/28 07:04:39;;;;;;;9.85;3.10;;;9.90;99.90;;;;;;5113434;28;20280;-57
2023/12/28 07:07:05;;;;;;;11.40;3.03;;;10.00;99.90;;;;;;5117286;28;20198;-57
2023/12/28 07:09:31;;;;;;;13.93;2.83;;;10.00;99.90;;;;;;5117158;28;20177;-59
2023/12/28 07:11:56;;;;;;;9.00;2.53;;;10.00;99.90;;;;;;5117256;28;20204;-57
2023/12/28 07:14:22;;;;;;;11.25;3.08;;;9.90;99.90;;;;;;5113399;28;20573;-56
2023/12/28 07:16:48;;;;;;;8.50;3.15;;;9.90;99.90;;;;;;5113930;28;20178;-57
2023/12/28 07:19:13;;;;;;;11.82;3.75;;;9.90;99.90;;;;;;5115051;28;20177;-58
2023/12/28 07:21:39;;;;;;;14.25;3.33;;;10.00;99.90;;;;;;5115937;28;20230;-58
2023/12/28 07:24:05;;;;;;;11.40;2.75;;;9.90;99.90;;;;;;5116510;28;20669;-57
2023/12/28 07:26:31;;;;;;;11.15;3.08;;;10.00;99.90;;;;;;5116796;28;20526;-58
2023/12/28 07:28:56;;;;;;;10.20;2.55;;;10.00;99.90;;;;;;5115632;28;20181;-58
2023/12/28 07:31:26;;;;;;;11.95;2.95;;;9.90;99.90;;;;;;5116485;28;20192;-57
2023/12/28 07:33:53;;;;;;;10.88;2.92;;;10.00;99.90;;;;;;5113579;28;20185;-57
2023/12/28 07:36:19;;;;;;;12.80;3.17;;;10.00;99.90;;;;;;5115340;28;20165;-58
2023/12/28 07:38:45;;;;;;;9.25;3.00;;;10.30;99.90;;;;;;5117041;28;20256;-58
2023/12/28 07:41:10;;;;;;;11.77;2.85;;;10.30;99.90;;;;;;5115680;28;20173;-58
2023/12/28 07:43:36;;;;;;;11.38;3.75;;;10.20;99.90;;;;;;5112265;28;21276;-57
2023/12/28 07:46:02;;;;;;;12.10;2.80;;;10.30;99.90;;;;;;5113832;28;20668;-58
2023/12/28 07:48:30;;;;;;;13.43;2.92;;;10.30;99.90;;;;;;5116364;28;20253;-58
2023/12/28 07:50:56;;;;;;;10.45;3.15;;;10.40;99.90;;;;;;5116512;28;20185;-58
2023/12/28 07:53:22;;;;;;;12.50;2.90;;;10.40;99.90;;;;;;5115488;28;20557;-57
2023/12/28 07:55:48;;;;;;;8.38;2.78;;;10.40;99.90;;;;;;5116664;28;20165;-58
2023/12/28 07:58:14;;;;;;;7.78;2.47;;;10.40;99.90;;;;;;5116506;28;20173;-58
2023/12/28 08:00:40;;;;;;;9.68;3.00;;;10.40;99.90;;;;;;5116169;28;20530;-57
2023/12/28 08:03:05;;;;;;;16.17;3.13;;;10.40;99.90;;;;;;5116356;28;20197;-57
2023/12/28 08:05:31;;;;;;;16.02;2.78;;;10.30;99.90;;;;;;5116411;28;20550;-58
2023/12/28 08:07:57;;;;;;;13.05;3.50;;;10.20;99.90;;;;;;5116301;28;20508;-57
2023/12/28 08:10:23;;;;;;;9.30;2.80;;;10.20;99.90;;;;;;5114553;28;20253;-57
2023/12/28 08:12:48;;;;;;;11.13;3.03;;;10.20;99.90;;;;;;5115948;28;20169;-58
2023/12/28 08:15:14;;;;;;;10.95;2.92;;;10.20;99.90;;;;;;5116458;28;20258;-59
2023/12/28 08:17:40;;;;;;;10.93;3.28;;;10.30;99.90;;;;;;5115914;28;20492;-57
2023/12/28 08:20:06;;;;;;;11.73;2.70;;;10.30;99.90;;;;;;5116342;28;20203;-58
2023/12/28 08:22:32;;;;;;;7.88;2.72;;;10.30;99.90;;;;;;5116218;27;20236;-58
2023/12/28 08:24:58;;;;;;;10.30;2.60;;;10.40;99.90;;;;;;5115786;28;20213;-58
2023/12/28 08:27:23;;;;;;;10.30;3.08;;;10.30;99.90;;;;;;5116100;28;20184;-57
2023/12/28 08:29:49;;;;;;;13.60;2.97;;;10.20;99.90;;;;;;5116066;28;20216;-57
2023/12/28 08:32:15;;;;;;;10.82;3.00;;;10.30;99.90;;;;;;5115741;28;20595;-57
2023/12/28 08:34:40;;;;;;;11.43;3.20;;;10.40;99.90;;;;;;5114629;28;20539;-58
2023/12/28 08:37:06;;;;;;;14.55;3.33;;;10.50;99.90;;;;;;5115765;28;20579;-58
2023/12/28 08:39:32;;;;;;;8.98;2.95;;;10.50;99.90;;;;;;5115895;28;20223;-58
2023/12/28 08:41:58;;;;;;;12.88;3.00;;;10.50;99.90;;;;;;5115888;28;20181;-58
2023/12/28 08:44:23;;;;;;;9.20;2.70;;;10.60;99.90;;;;;;5115371;28;20193;-58
2023/12/28 08:46:49;;;;;;;15.27;3.60;;;10.60;99.90;;;;;;5115524;28;20187;-57
2023/12/28 08:49:15;;;;;;;12.52;3.30;;;10.50;99.90;;;;;;5115809;28;20169;-58
2023/12/28 08:51:42;;;;;;;9.73;2.90;;;10.50;99.90;;;;;;5115654;28;20165;-57
2023/12/28 08:54:09;;;;;;;11.50;3.38;;;10.50;99.90;;;;;;5115621;28;20221;-57
2023/12/28 08:56:35;;;;;;;13.23;3.65;;;10.60;99.90;;;;;;5115147;28;20255;-58
2023/12/28 08:59:01;;;;;;;14.40;3.45;;;10.70;99.90;;;;;;5115581;28;20687;-58
2023/12/28 09:01:26;;;;;;;17.48;3.20;;;10.70;99.90;;;;;;5115615;28;20166;-55
2023/12/28 09:03:56;;;;;;;8.98;2.85;;;10.80;99.90;;;;;;5115442;28;20638;-54
2023/12/28 09:06:22;;;;;;;10.25;3.20;;;10.90;99.90;;;;;;5115356;28;20182;-54
2023/12/28 09:08:50;;;;;;;11.32;3.50;;;10.90;99.90;;;;;;5115315;28;20315;-54
2023/12/28 09:11:16;;;;;;;12.70;3.10;;;11.00;99.90;;;;;;5115153;28;20526;-55
2023/12/28 09:13:42;;;;;;;10.50;3.28;;;10.90;99.90;;;;;;5115482;28;20173;-54
2023/12/28 09:16:11;;;;;;;13.52;3.17;;;10.90;99.90;;;;;;5115200;28;20183;-55
2023/12/28 09:18:37;;;;;;;11.20;3.47;;;10.90;99.90;;;;;;5115340;28;20169;-55
2023/12/28 09:21:04;;;;;;;16.85;3.40;;;10.90;99.90;;;;;;5114837;28;20568;-51
2023/12/28 09:23:31;;;;;;;12.55;3.28;;;10.90;99.90;;;;;;5115025;28;20290;-55
2023/12/28 09:25:57;;;;;;;9.70;3.42;;;10.80;99.90;;;;;;5114996;28;20173;-54
2023/12/28 09:28:23;;;;;;;13.80;3.33;;;10.80;99.90;;;;;;5114117;28;20253;-54
2023/12/28 09:30:49;;;;;;;14.15;3.40;;;11.10;99.90;;;;;;5113932;28;20290;-52
2023/12/28 09:33:16;;;;;;;11.18;3.17;;;11.20;99.90;;;;;;5114881;28;20180;-55
2023/12/28 09:35:41;;;;;;;9.18;3.03;;;11.20;99.90;;;;;;5114788;28;20173;-55
2023/12/28 09:38:08;;;;;;;10.10;3.45;;;11.30;99.90;;;;;;5114808;28;20522;-55
2023/12/28 09:40:37;;;;;;;14.95;3.50;;;11.30;99.90;;;;;;5114746;28;20162;-56
2023/12/28 09:43:15;;;;;;;13.25;3.40;;;11.30;99.90;;;;;;5114355;28;20685;-54
2023/12/28 09:45:40;;;;;;;15.23;3.50;;;11.30;99.90;;;;;;5114868;28;20172;-55
2023/12/28 09:48:06;;;;;;;16.30;3.58;;;11.30;99.90;;;;;;5114723;28;20169;-52
2023/12/28 09:50:32;;;;;;;12.18;3.47;;;11.40;99.90;;;;;;5114655;28;20185;-53
2023/12/28 09:52:58;;;;;;;13.70;3.97;;;11.30;99.90;;;;;;5114151;28;20637;-57
2023/12/28 09:55:27;;;;;;;11.07;3.15;;;11.30;99.90;;;;;;5112808;28;20188;-54
2023/12/28 09:57:53;;;;;;;13.95;3.13;;;11.30;99.90;;;;;;5114379;28;20196;-54
2023/12/28 10:00:19;;;;;;;15.13;3.58;;;11.30;99.90;;;;;;5114342;28;20230;-53
2023/12/28 10:02:45;;;;;;;13.18;3.60;;;11.10;99.90;;;;;;5114269;28;20181;-54
2023/12/28 10:05:16;;;;;;;13.77;3.50;;;11.20;99.90;;;;;;5114048;28;20177;-52
2023/12/28 10:07:43;;;;;;;14.68;3.65;;;11.30;99.90;;;;;;5114315;28;20206;-53
2023/12/28 10:10:09;;;;;;;13.15;3.58;;;11.20;99.90;;;;;;5113870;28;20177;-55
2023/12/28 10:12:36;;;;;;;13.52;3.40;;;11.20;99.90;;;;;;5114406;28;20193;-54
2023/12/28 10:15:02;;;;;;;13.95;3.47;;;11.30;99.90;;;;;;5114349;28;20169;-55
2023/12/28 10:17:28;;;;;;;12.73;3.58;;;11.30;99.90;;;;;;5114134;28;20565;-53
2023/12/28 10:19:55;;;;;;;15.00;3.92;;;11.40;99.90;;;;;;5113885;28;20178;-52
2023/12/28 10:22:21;;;;;;;13.95;3.40;;;11.40;99.90;;;;;;5113778;28;20231;-54
2023/12/28 10:24:47;;;;;;;15.70;3.40;;;11.50;99.90;;;;;;5113716;28;20205;-51
2023/12/28 10:27:15;;;;;;;14.30;4.38;;;11.50;99.90;;;;;;5113733;28;20173;-54
2023/12/28 10:29:42;;;;;;;11.65;3.25;;;11.40;99.90;;;;;;5114041;28;20173;-51
2023/12/28 10:32:08;;;;;;;13.85;3.53;;;11.40;99.90;;;;;;5113623;28;20180;-54
2023/12/28 10:34:34;;;;;;;13.07;3.70;;;11.50;99.90;;;;;;5113782;28;20177;-54
2023/12/28 10:37:01;;;;;;;16.40;4.65;;;11.40;99.90;;;;;;5113678;28;20181;-54
2023/12/28 10:39:32;;;;;;;12.07;3.47;;;11.40;99.90;;;;;;5113781;28;20188;-55
2023/12/28 10:42:03;;;;;;;16.90;4.13;;;11.40;99.90;;;;;;5118873;28;20195;-54
2023/12/28 10:44:35;;;;;;;9.70;3.13;;;11.50;99.90;;;;;;5118453;28;20254;-54
2023/12/28 10:47:03;;;;;;;15.50;4.07;;;11.50;99.90;;;;;;5118420;28;20158;-56
2023/12/28 10:49:33;;;;;;;14.18;4.72;;;11.60;99.90;;;;;;5118108;28;20201;-54
2023/12/28 10:52:00;;;;;;;13.10;3.53;;;11.60;99.90;;;;;;5117778;28;20169;-53
2023/12/28 10:54:44;;;;;;;13.68;4.38;;;11.60;99.90;;;;;;5117863;28;20177;-55
2023/12/28 10:57:17;;;;;;;17.67;4.10;;;11.60;99.90;;;;;;5117792;28;20165;-53
2023/12/28 11:00:09;;;;;;;14.07;3.58;;;11.60;99.90;;;;;;5118031;28;20153;-54
2023/12/28 11:02:44;;;;;;;12.73;3.35;;;11.70;99.90;;;;;;5117969;28;20161;-54
2023/12/28 11:05:11;;;;;;;9.35;2.75;;;11.60;99.90;;;;;;5116791;28;20578;-51
2023/12/28 11:07:39;;;;;;;13.32;3.35;;;11.60;99.90;;;;;;5117757;28;20169;-54
2023/12/28 11:10:07;;;;;;;10.27;3.92;;;11.50;99.90;;;;;;5117404;28;20664;-53
2023/12/28 11:12:33;;;;;;;13.65;3.70;;;11.60;99.90;;;;;;5117576;28;20177;-52
2023/12/28 11:14:59;;;;;;;15.68;4.30;;;11.70;99.90;;;;;;5117894;28;20256;-54
2023/12/28 11:17:25;;;;;;;15.63;4.15;;;11.60;99.90;;;;;;5117555;28;20251;-53
2023/12/28 11:19:53;;;;;;;16.60;4.45;;;11.70;99.90;;;;;;5117545;28;20602;-51
2023/12/28 11:22:22;;;;;;;16.55;4.38;;;11.70;99.90;;;;;;5117155;28;20256;-51
2023/12/28 11:24:47;;;;;;;13.45;3.92;;;11.70;99.90;;;;;;5117265;28;20604;-53
2023/12/28 11:27:13;;;;;;;12.88;3.97;;;11.80;99.90;;;;;;5117931;28;20183;-50
2023/12/28 11:29:41;;;;;;;15.15;4.18;;;11.80;99.90;;;;;;5117722;27;20208;-54
2023/12/28 11:32:08;;;;;;;14.82;4.00;;;11.90;99.90;;;;;;5116990;28;20630;-52
2023/12/28 11:34:34;;;;;;;17.13;4.57;;;11.90;99.90;;;;;;5117236;28;20181;-52
2023/12/28 11:37:20;;;;;;;15.98;4.32;;;11.90;99.90;;;;;;5117265;28;20326;-52
2023/12/28 11:39:49;;;;;;;13.77;3.65;;;11.90;99.90;;;;;;5117113;28;20161;-51
2023/12/28 11:42:20;;;;;;;15.75;3.63;;;11.90;99.90;;;;;;5117031;28;20218;-51
2023/12/28 11:44:46;;;;;;;14.98;4.03;;;11.80;99.90;;;;;;5117089;28;20193;-55
2023/12/28 11:47:17;;;;;;;14.65;4.53;;;12.00;99.90;;;;;;5117007;28;20169;-55
2023/12/28 11:49:45;;;;;;;13.50;4.00;;;11.90;99.90;;;;;;5116862;28;20258;-54
2023/12/28 11:52:26;;;;;;;16.70;4.43;;;11.90;99.90;;;;;;5115410;28;20173;-51
2023/12/28 11:54:52;;;;;;;11.05;3.75;;;11.90;99.90;;;;;;5117047;28;20294;-52
2023/12/28 11:57:17;;;;;;;16.15;4.25;;;11.70;99.90;;;;;;5117036;28;20260;-53
2023/12/28 11:59:43;;;;;;;12.30;3.33;;;11.80;99.90;;;;;;5116716;28;20256;-53
2023/12/28 12:02:10;;;;;;;16.25;4.05;;;11.70;99.90;;;;;;5116594;28;20180;-51
2023/12/28 12:04:36;;;;;;;13.63;4.18;;;11.70;99.90;;;;;;5116591;28;20301;-52
2023/12/28 12:07:03;;;;;;;14.18;3.58;;;11.80;99.90;;;;;;5116313;28;20265;-53
2023/12/28 12:09:34;;;;;;;16.23;4.15;;;11.80;99.90;;;;;;5116549;28;20185;-54
2023/12/28 12:12:03;;;;;;;17.30;3.85;;;11.90;99.90;;;;;;5116669;28;20161;-54
2023/12/28 12:14:30;;;;;;;14.32;3.78;;;11.80;99.90;;;;;;5116451;28;20184;-54
2023/12/28 12:16:59;;;;;;;18.42;4.38;;;11.80;99.90;;;;;;5116444;28;20222;-52
2023/12/28 12:19:26;;;;;;;16.67;4.60;;;11.90;99.90;;;;;;5116353;28;20195;-53
2023/12/28 12:21:58;;;;;;;12.85;4.00;;;11.90;99.90;;;;;;5116212;28;20304;-53
2023/12/28 12:24:24;;;;;;;14.77;4.20;;;11.90;99.90;;;;;;5116148;28;20204;-49
2023/12/28 12:26:51;;;;;;;15.95;4.32;;;11.90;99.90;;;;;;5116238;28;20173;-54
2023/12/28 12:29:17;;;;;;;12.35;4.05;;;11.90;99.90;;;;;;5116446;28;20204;-53
2023/12/28 12:31:44;;;;;;;14.25;3.85;;;11.90;99.90;;;;;;5115745;28;20677;-52
2023/12/28 12:34:11;;;;;;;11.98;3.60;;;11.80;99.90;;;;;;5116105;28;20172;-55
2023/12/28 12:36:37;;;;;;;13.30;4.15;;;11.80;99.90;;;;;;5116042;28;20177;-54
2023/12/28 12:39:06;;;;;;;16.00;3.97;;;11.80;99.90;;;;;;5116059;28;20268;-53